Time;durP1;ratioP1;P1;durP2;ratioP2;P2;SDS_P1;SDS_P2;PMS_P1;PMS_P2;Temp;Humidity;BMP_temperature;BMP_pressure;BME280_temperature;BME280_humidity;BME280_pressure;Samples;Min_cycle;Max_cycle;Signal;HPM_P1;HPM_P2
2021/07/26 00:00:46;;;;;;;11.23;7.93;;;20.10;91.80;;;;;;5054860;28;20108;-78
2021/07/26 00:03:12;;;;;;;10.73;7.70;;;20.00;91.80;;;;;;5054691;28;20358;-78
2021/07/26 00:05:38;;;;;;;11.80;7.60;;;20.00;91.90;;;;;;5054410;28;20080;-78
2021/07/26 00:08:04;;;;;;;10.20;7.13;;;20.00;91.90;;;;;;5055749;28;20057;-78
2021/07/26 00:10:30;;;;;;;12.15;8.02;;;20.00;92.00;;;;;;5054544;28;20469;-74
2021/07/26 00:12:55;;;;;;;9.80;7.50;;;20.00;92.30;;;;;;5055678;28;20095;-73
2021/07/26 00:15:21;;;;;;;11.95;8.25;;;19.90;92.00;;;;;;5021347;28;20025;-74
2021/07/26 00:17:47;;;;;;;11.85;8.60;;;19.90;92.10;;;;;;5037706;28;20468;-74
2021/07/26 00:20:14;;;;;;;11.35;7.95;;;19.90;92.10;;;;;;5037600;28;20052;-74
2021/07/26 00:22:40;;;;;;;13.73;8.63;;;19.80;92.10;;;;;;5053611;28;20109;-74
2021/07/26 00:25:07;;;;;;;12.98;9.10;;;19.80;92.10;;;;;;5037470;28;20124;-73
2021/07/26 00:27:33;;;;;;;14.20;8.57;;;19.80;92.20;;;;;;5054220;28;20032;-74
2021/07/26 00:29:59;;;;;;;13.23;9.05;;;19.80;92.20;;;;;;5054076;28;20009;-73
2021/07/26 00:32:28;;;;;;;12.52;8.82;;;19.80;92.30;;;;;;5054174;28;20531;-74
2021/07/26 00:34:54;;;;;;;12.18;8.63;;;19.70;92.30;;;;;;5037850;28;20033;-73
2021/07/26 00:37:19;;;;;;;10.77;7.95;;;19.70;92.30;;;;;;5037246;28;20128;-74
2021/07/26 00:39:45;;;;;;;10.13;7.60;;;19.70;92.40;;;;;;5055271;28;20029;-74
2021/07/26 00:42:11;;;;;;;11.70;8.15;;;19.70;92.40;;;;;;5054015;28;20523;-74
2021/07/26 00:44:37;;;;;;;10.20;8.02;;;19.70;92.40;;;;;;5053902;28;20416;-74
2021/07/26 00:47:02;;;;;;;10.85;8.23;;;19.70;92.50;;;;;;5053837;28;20040;-74
2021/07/26 00:49:29;;;;;;;11.10;7.95;;;19.60;92.60;;;;;;5055106;28;20025;-74
2021/07/26 00:51:58;;;;;;;13.52;8.05;;;19.60;92.50;;;;;;5054952;28;20111;-74
2021/07/26 00:54:38;;;;;;;13.10;8.30;;;19.60;92.50;;;;;;5053482;28;20385;-74
2021/07/26 00:57:05;;;;;;;13.45;8.57;;;19.50;92.50;;;;;;5054836;28;20100;-73
2021/07/26 00:59:31;;;;;;;11.07;8.15;;;19.60;92.60;;;;;;5053486;28;20043;-74
2021/07/26 01:01:59;;;;;;;11.23;8.52;;;19.60;92.60;;;;;;5053639;28;20033;-73
2021/07/26 01:04:26;;;;;;;11.30;7.72;;;19.50;92.60;;;;;;5054274;28;20562;-73
2021/07/26 01:06:53;;;;;;;11.32;7.68;;;19.50;92.90;;;;;;5053657;28;20033;-74
2021/07/26 01:09:18;;;;;;;11.35;7.80;;;19.50;92.60;;;;;;5037073;28;20060;-74
2021/07/26 01:11:45;;;;;;;13.60;7.15;;;19.50;92.60;;;;;;5054579;28;20052;-78
2021/07/26 01:14:17;;;;;;;9.85;6.97;;;19.50;92.60;;;;;;5054560;28;20111;-78
2021/07/26 01:16:44;;;;;;;11.98;7.65;;;19.40;92.80;;;;;;5054400;28;20047;-78
2021/07/26 01:19:10;;;;;;;10.30;8.00;;;19.40;92.60;;;;;;5036552;28;20036;-74
2021/07/26 01:21:36;;;;;;;12.38;7.93;;;19.40;92.60;;;;;;5053110;28;20021;-74
2021/07/26 01:24:02;;;;;;;12.25;8.23;;;19.40;92.50;;;;;;5054278;28;20099;-74
2021/07/26 01:26:29;;;;;;;10.18;7.70;;;19.40;92.60;;;;;;5053449;28;20465;-74
2021/07/26 01:28:57;;;;;;;13.05;8.20;;;19.40;92.60;;;;;;5053037;28;20032;-74
2021/07/26 01:31:23;;;;;;;11.68;7.38;;;19.30;92.50;;;;;;5052927;28;20025;-74
2021/07/26 01:33:49;;;;;;;11.48;7.55;;;19.40;92.60;;;;;;5053194;28;20127;-74
2021/07/26 01:36:16;;;;;;;11.82;7.32;;;19.30;92.60;;;;;;5036322;28;20024;-74
2021/07/26 01:38:44;;;;;;;13.35;8.02;;;19.30;92.70;;;;;;5054033;28;20029;-77
2021/07/26 01:41:19;;;;;;;11.32;7.45;;;19.30;92.90;;;;;;5054284;28;20032;-77
2021/07/26 01:44:02;;;;;;;10.10;6.70;;;19.30;92.60;;;;;;5052813;28;20116;-74
2021/07/26 01:46:46;;;;;;;9.73;6.30;;;19.30;92.70;;;;;;5052365;28;20020;-74
2021/07/26 01:49:24;;;;;;;12.00;7.65;;;19.20;92.60;;;;;;5052189;28;20465;-74
2021/07/26 01:51:50;;;;;;;10.65;7.22;;;19.20;92.60;;;;;;5052527;28;20025;-78
2021/07/26 01:54:16;;;;;;;11.68;7.80;;;19.20;92.60;;;;;;5050604;28;20071;-78
2021/07/26 01:56:41;;;;;;;16.50;6.90;;;19.20;92.60;;;;;;5037406;28;20025;-78
2021/07/26 01:59:07;;;;;;;12.63;7.15;;;19.20;92.60;;;;;;5033640;28;20040;-78
2021/07/26 02:01:33;;;;;;;10.80;6.80;;;19.20;92.70;;;;;;5032692;28;20112;-77
2021/07/26 02:03:59;;;;;;;11.15;8.18;;;19.10;92.60;;;;;;5033521;28;20542;-78
2021/07/26 02:06:26;;;;;;;11.60;6.72;;;19.10;92.60;;;;;;5032617;28;20052;-78
2021/07/26 02:08:51;;;;;;;10.02;6.65;;;19.10;92.70;;;;;;5015831;28;20382;-78
2021/07/26 02:11:21;;;;;;;9.30;6.45;;;19.10;92.70;;;;;;5033704;28;20017;-77
2021/07/26 02:13:50;;;;;;;15.40;7.28;;;19.10;92.80;;;;;;5033362;28;20458;-77
2021/07/26 02:16:16;;;;;;;9.77;6.53;;;19.10;92.70;;;;;;5033446;28;20457;-77
2021/07/26 02:18:42;;;;;;;11.60;7.18;;;19.00;92.70;;;;;;5033447;28;20031;-77
2021/07/26 02:21:07;;;;;;;9.75;6.25;;;19.00;92.70;;;;;;5033201;28;20025;-77
2021/07/26 02:23:33;;;;;;;9.93;6.40;;;19.00;92.70;;;;;;5033168;28;20036;-74
2021/07/26 02:25:59;;;;;;;9.32;6.30;;;19.00;92.70;;;;;;5031988;28;20050;-74
2021/07/26 02:28:24;;;;;;;10.65;6.18;;;19.00;92.80;;;;;;5015750;28;20581;-74
2021/07/26 02:30:50;;;;;;;10.65;6.47;;;19.00;92.80;;;;;;5031949;28;20029;-73
2021/07/26 02:33:16;;;;;;;8.80;6.15;;;19.00;92.80;;;;;;5032033;28;20022;-73
2021/07/26 02:35:45;;;;;;;12.52;6.72;;;19.00;92.70;;;;;;5031875;28;20040;-73
2021/07/26 02:38:10;;;;;;;8.48;6.18;;;18.90;92.70;;;;;;5015718;28;20029;-77
2021/07/26 02:40:36;;;;;;;9.68;5.93;;;19.00;92.70;;;;;;5032996;28;20439;-77
2021/07/26 02:43:02;;;;;;;11.15;6.53;;;18.90;92.70;;;;;;5031734;28;20482;-77
2021/07/26 02:45:27;;;;;;;10.55;7.13;;;19.00;92.70;;;;;;5032696;28;20037;-77
2021/07/26 02:47:54;;;;;;;9.63;5.80;;;18.90;92.70;;;;;;5031537;28;20080;-77
2021/07/26 02:50:21;;;;;;;8.90;6.30;;;18.90;93.00;;;;;;5033024;28;20389;-77
2021/07/26 02:52:46;;;;;;;11.18;6.38;;;18.90;92.70;;;;;;5033047;28;20533;-77
2021/07/26 02:55:13;;;;;;;10.88;5.78;;;18.80;92.70;;;;;;5031677;28;20030;-77
2021/07/26 02:57:39;;;;;;;8.18;5.10;;;18.90;92.80;;;;;;5032992;28;20021;-77
2021/07/26 03:00:06;;;;;;;8.88;5.95;;;18.90;92.80;;;;;;5031803;28;20084;-77
2021/07/26 03:02:36;;;;;;;8.38;5.80;;;18.80;92.70;;;;;;5032983;28;20029;-77
2021/07/26 03:05:04;;;;;;;12.48;6.60;;;18.80;92.80;;;;;;5032649;28;20050;-77
2021/07/26 03:07:30;;;;;;;8.10;5.90;;;18.80;92.80;;;;;;5032991;28;20528;-77
2021/07/26 03:09:56;;;;;;;7.68;5.72;;;18.80;92.80;;;;;;5031856;28;20444;-77
2021/07/26 03:12:21;;;;;;;11.25;5.60;;;18.80;92.80;;;;;;5031686;28;20058;-74
2021/07/26 03:14:47;;;;;;;8.93;5.35;;;18.80;92.80;;;;;;5032767;28;20390;-74
2021/07/26 03:17:13;;;;;;;9.52;6.10;;;18.80;92.80;;;;;;5015062;28;20029;-77
2021/07/26 03:19:38;;;;;;;10.38;5.95;;;18.80;92.80;;;;;;5015293;28;20113;-77
2021/07/26 03:22:42;;;;;;;10.27;6.40;;;18.80;92.80;;;;;;5031648;28;20033;-77
2021/07/26 03:25:08;;;;;;;11.30;6.60;;;18.80;92.90;;;;;;5031289;28;20477;-77
2021/07/26 03:27:34;;;;;;;11.55;6.38;;;18.70;92.80;;;;;;5031519;28;20021;-77
2021/07/26 03:29:59;;;;;;;11.32;7.25;;;18.70;92.80;;;;;;5032636;28;20026;-77
2021/07/26 03:32:25;;;;;;;11.80;5.88;;;18.70;92.80;;;;;;5032607;28;20033;-77
2021/07/26 03:34:50;;;;;;;9.73;6.30;;;18.70;92.80;;;;;;5031340;28;20438;-77
2021/07/26 03:37:16;;;;;;;8.60;5.72;;;18.70;92.90;;;;;;5032840;28;20025;-77
2021/07/26 03:39:41;;;;;;;9.18;6.25;;;18.70;92.90;;;;;;5032462;28;20041;-74
2021/07/26 03:42:07;;;;;;;8.10;5.75;;;18.70;92.90;;;;;;5031442;28;20559;-77
2021/07/26 03:44:33;;;;;;;8.85;5.55;;;18.70;92.90;;;;;;5031264;28;20043;-77
2021/07/26 03:46:59;;;;;;;10.18;5.78;;;18.60;92.90;;;;;;5031506;28;20119;-77
2021/07/26 03:49:25;;;;;;;11.40;6.78;;;18.60;92.90;;;;;;5014754;28;20037;-77
2021/07/26 03:51:50;;;;;;;8.77;5.50;;;18.60;92.90;;;;;;5031338;28;20099;-74
2021/07/26 03:54:16;;;;;;;14.32;5.82;;;18.60;93.20;;;;;;5032514;28;20055;-77
2021/07/26 03:56:41;;;;;;;11.05;5.65;;;18.60;93.00;;;;;;5032656;28;20078;-77
2021/07/26 03:59:07;;;;;;;9.93;5.95;;;18.60;93.00;;;;;;5034590;28;20432;-77
2021/07/26 04:01:33;;;;;;;10.70;6.00;;;18.60;93.00;;;;;;5037521;28;20041;-77
2021/07/26 04:03:59;;;;;;;10.65;6.65;;;18.60;93.00;;;;;;5033537;28;20041;-77
2021/07/26 04:06:25;;;;;;;10.48;5.78;;;18.50;93.00;;;;;;5016563;28;20050;-77
2021/07/26 04:08:52;;;;;;;10.30;5.88;;;18.60;93.00;;;;;;5033302;28;20032;-77
2021/07/26 04:11:38;;;;;;;12.43;6.28;;;18.50;93.00;;;;;;5034460;28;20041;-77
2021/07/26 04:14:06;;;;;;;8.15;5.68;;;18.50;93.00;;;;;;5020869;28;20030;-77
2021/07/26 04:16:31;;;;;;;12.45;5.90;;;18.50;93.00;;;;;;5033650;28;20021;-77
2021/07/26 04:18:59;;;;;;;8.50;5.20;;;18.50;93.00;;;;;;5018040;28;20029;-73
2021/07/26 04:21:32;;;;;;;10.50;5.88;;;18.50;93.00;;;;;;5035543;28;20025;-73
2021/07/26 04:23:58;;;;;;;9.07;5.53;;;18.50;93.00;;;;;;5035513;28;20029;-73
2021/07/26 04:26:24;;;;;;;9.93;5.82;;;18.50;93.00;;;;;;5017733;28;20397;-73
2021/07/26 04:28:50;;;;;;;8.05;5.53;;;18.50;93.00;;;;;;5034462;28;20039;-74
2021/07/26 04:31:16;;;;;;;11.10;6.38;;;18.50;93.00;;;;;;5017654;28;20028;-74
2021/07/26 04:33:41;;;;;;;10.13;6.57;;;18.50;93.30;;;;;;5017643;28;20022;-73
2021/07/26 04:36:07;;;;;;;8.73;5.57;;;18.50;93.10;;;;;;5017584;28;20033;-74
2021/07/26 04:38:32;;;;;;;10.07;6.13;;;18.50;93.10;;;;;;5035433;28;20034;-73
2021/07/26 04:40:59;;;;;;;11.90;5.93;;;18.50;93.10;;;;;;5033966;28;20452;-73
2021/07/26 04:43:25;;;;;;;11.13;6.80;;;18.50;93.20;;;;;;5033815;28;20036;-73
2021/07/26 04:45:50;;;;;;;7.45;5.45;;;18.50;93.20;;;;;;5035177;28;20026;-73
2021/07/26 04:48:16;;;;;;;11.20;6.25;;;18.50;93.20;;;;;;5017410;28;20513;-73
2021/07/26 04:50:42;;;;;;;16.38;6.13;;;18.50;93.20;;;;;;5034990;28;20021;-73
2021/07/26 04:53:08;;;;;;;11.00;6.13;;;18.50;93.20;;;;;;5035041;28;20087;-73
2021/07/26 04:55:33;;;;;;;9.65;5.72;;;18.50;93.30;;;;;;5034969;28;20381;-73
2021/07/26 04:57:59;;;;;;;10.07;5.30;;;18.50;93.20;;;;;;5035099;28;20052;-73
2021/07/26 05:00:27;;;;;;;11.57;5.38;;;18.50;93.20;;;;;;5034858;28;20038;-73
2021/07/26 05:02:53;;;;;;;7.97;5.75;;;18.60;93.20;;;;;;5034899;28;20060;-73
2021/07/26 05:05:19;;;;;;;8.95;5.28;;;18.60;93.30;;;;;;5033385;28;20145;-77
2021/07/26 05:07:44;;;;;;;9.70;4.85;;;18.50;93.20;;;;;;5033316;28;20033;-77
2021/07/26 05:10:11;;;;;;;8.38;5.88;;;18.60;93.50;;;;;;5034706;28;20358;-77
2021/07/26 05:12:37;;;;;;;8.93;5.68;;;18.60;93.30;;;;;;5033388;28;20021;-77
2021/07/26 05:15:03;;;;;;;11.23;5.38;;;18.60;93.20;;;;;;5033531;28;20053;-73
2021/07/26 05:17:29;;;;;;;10.27;5.43;;;18.60;93.20;;;;;;5033412;28;20029;-78
2021/07/26 05:19:55;;;;;;;9.60;5.20;;;18.60;93.20;;;;;;5016640;28;20028;-77
2021/07/26 05:22:21;;;;;;;11.32;5.35;;;18.60;93.20;;;;;;5016598;28;20037;-77
2021/07/26 05:24:47;;;;;;;10.07;5.60;;;18.60;93.20;;;;;;5034329;28;20076;-78
2021/07/26 05:27:13;;;;;;;9.25;5.28;;;18.70;93.20;;;;;;5016795;28;20037;-77
2021/07/26 05:29:38;;;;;;;13.00;5.78;;;18.70;93.20;;;;;;5034357;28;20104;-77
2021/07/26 05:32:05;;;;;;;8.45;4.88;;;18.70;93.10;;;;;;5016519;28;20026;-78
2021/07/26 05:34:31;;;;;;;11.95;5.45;;;18.70;93.10;;;;;;5033001;28;20033;-78
2021/07/26 05:36:56;;;;;;;11.00;5.22;;;18.80;93.20;;;;;;5032937;28;20362;-77
2021/07/26 05:39:25;;;;;;;11.45;5.22;;;18.80;93.10;;;;;;5032728;28;20041;-78
2021/07/26 05:41:58;;;;;;;9.13;5.28;;;18.80;93.10;;;;;;5033227;28;20033;-78
2021/07/26 05:44:24;;;;;;;8.88;4.90;;;18.90;93.10;;;;;;5034065;28;20030;-78
2021/07/26 05:46:50;;;;;;;8.23;4.63;;;18.90;93.00;;;;;;5032859;28;20075;-77
2021/07/26 05:49:16;;;;;;;8.20;4.78;;;18.90;93.00;;;;;;5034280;28;20127;-77
2021/07/26 05:51:42;;;;;;;9.32;5.25;;;18.90;93.00;;;;;;5032919;28;20029;-78
2021/07/26 05:54:07;;;;;;;10.38;4.38;;;19.00;93.00;;;;;;5034693;28;20163;-78
2021/07/26 05:56:40;;;;;;;9.07;5.10;;;19.00;93.00;;;;;;5046663;28;20112;-78
2021/07/26 05:59:06;;;;;;;8.30;4.80;;;19.00;93.00;;;;;;5053885;28;20040;-78
2021/07/26 06:01:47;;;;;;;10.18;4.55;;;19.00;92.90;;;;;;5053922;28;20481;-78
2021/07/26 06:04:18;;;;;;;11.57;5.22;;;19.10;92.90;;;;;;5053529;28;20033;-78
2021/07/26 06:06:48;;;;;;;8.70;5.05;;;19.10;92.80;;;;;;5054477;28;20090;-77
2021/07/26 06:09:14;;;;;;;9.95;5.35;;;19.10;92.70;;;;;;5053965;28;20036;-78
2021/07/26 06:11:41;;;;;;;7.38;4.85;;;19.10;92.60;;;;;;5053163;28;20108;-78
2021/07/26 06:14:07;;;;;;;7.97;4.85;;;19.10;92.60;;;;;;5053887;28;20104;-77
2021/07/26 06:16:33;;;;;;;9.90;5.43;;;19.20;92.50;;;;;;5049602;28;20044;-78
2021/07/26 06:19:01;;;;;;;7.78;4.70;;;19.20;92.50;;;;;;5053003;28;20037;-78
2021/07/26 06:21:27;;;;;;;8.13;5.15;;;19.20;92.40;;;;;;5051818;28;20025;-74
2021/07/26 06:23:52;;;;;;;9.50;5.55;;;19.20;92.40;;;;;;5053467;28;20040;-73
2021/07/26 06:26:18;;;;;;;8.63;5.45;;;19.20;92.30;;;;;;5052225;28;20017;-73
2021/07/26 06:28:44;;;;;;;9.00;5.60;;;19.20;92.20;;;;;;5052328;28;20492;-74
2021/07/26 06:31:10;;;;;;;10.70;5.80;;;19.20;92.20;;;;;;5052074;28;20021;-73
2021/07/26 06:33:36;;;;;;;11.05;5.32;;;19.20;92.30;;;;;;5051933;28;20028;-71
2021/07/26 06:36:03;;;;;;;10.20;6.25;;;19.20;92.20;;;;;;5035581;28;20124;-73
2021/07/26 06:38:29;;;;;;;11.82;5.97;;;19.20;92.20;;;;;;5051864;28;20025;-73
2021/07/26 06:40:55;;;;;;;14.30;6.60;;;19.30;92.30;;;;;;5053213;28;20083;-73
2021/07/26 06:43:20;;;;;;;8.95;5.97;;;19.30;92.30;;;;;;5035230;28;20036;-73
2021/07/26 06:45:46;;;;;;;8.50;5.57;;;19.30;92.30;;;;;;5051835;28;20025;-74
2021/07/26 06:48:12;;;;;;;11.68;6.05;;;19.30;92.30;;;;;;5053116;28;20049;-72
2021/07/26 06:50:41;;;;;;;8.55;5.43;;;19.30;92.20;;;;;;5051864;28;20028;-73
2021/07/26 06:53:07;;;;;;;9.23;6.10;;;19.30;92.20;;;;;;5043645;28;20026;-74
2021/07/26 06:55:38;;;;;;;9.73;7.15;;;19.40;92.20;;;;;;5039832;28;20148;-73
2021/07/26 06:58:05;;;;;;;10.35;5.90;;;19.40;92.20;;;;;;5033049;28;20037;-72
2021/07/26 07:00:31;;;;;;;9.50;6.88;;;19.50;92.20;;;;;;5048682;28;20028;-73
2021/07/26 07:02:57;;;;;;;9.18;6.63;;;19.40;92.10;;;;;;5032215;28;20359;-73
2021/07/26 07:05:23;;;;;;;12.77;7.00;;;19.50;92.10;;;;;;5033064;28;20056;-73
2021/07/26 07:07:48;;;;;;;10.73;5.93;;;19.50;92.00;;;;;;5048672;28;20022;-73
2021/07/26 07:10:14;;;;;;;10.75;6.57;;;19.60;91.90;;;;;;5033392;28;20053;-73
2021/07/26 07:12:40;;;;;;;10.23;6.47;;;19.60;91.90;;;;;;5032329;28;20026;-73
2021/07/26 07:15:07;;;;;;;9.27;6.30;;;19.60;91.80;;;;;;5032379;28;20035;-73
2021/07/26 07:17:32;;;;;;;13.13;7.15;;;19.60;91.80;;;;;;5033259;28;20426;-73
2021/07/26 07:19:58;;;;;;;8.55;6.25;;;19.60;91.80;;;;;;5031785;28;20057;-72
2021/07/26 07:22:24;;;;;;;11.82;7.20;;;19.70;91.90;;;;;;5031982;28;20034;-73
2021/07/26 07:24:50;;;;;;;10.90;6.43;;;19.80;92.00;;;;;;5032755;28;20524;-73
2021/07/26 07:27:15;;;;;;;8.38;6.38;;;19.90;91.90;;;;;;5031796;28;20034;-72
2021/07/26 07:29:41;;;;;;;11.60;6.10;;;20.00;91.80;;;;;;5031963;28;20029;-73
2021/07/26 07:32:11;;;;;;;7.22;4.97;;;20.10;91.70;;;;;;5035728;28;20063;-73
2021/07/26 07:34:38;;;;;;;10.27;6.55;;;20.30;91.70;;;;;;5035398;28;20096;-73
2021/07/26 07:37:05;;;;;;;8.98;6.00;;;20.40;91.50;;;;;;5036464;28;20030;-72
2021/07/26 07:39:31;;;;;;;11.55;6.55;;;20.50;91.20;;;;;;5036787;28;20064;-73
2021/07/26 07:41:57;;;;;;;8.93;5.15;;;20.60;91.10;;;;;;5036525;28;20114;-73
2021/07/26 07:44:29;;;;;;;9.90;6.28;;;20.70;90.90;;;;;;5035356;28;20041;-73
2021/07/26 07:46:55;;;;;;;9.80;5.60;;;20.90;90.70;;;;;;5035406;28;20048;-72
2021/07/26 07:49:21;;;;;;;9.05;5.68;;;20.90;90.60;;;;;;5035302;28;20025;-73
2021/07/26 07:51:48;;;;;;;9.52;5.10;;;21.00;90.30;;;;;;5035311;28;20029;-72
2021/07/26 07:54:14;;;;;;;7.72;5.43;;;21.00;90.10;;;;;;5035450;28;20037;-72
2021/07/26 07:56:39;;;;;;;8.68;4.53;;;21.10;90.00;;;;;;5036203;28;20029;-73
2021/07/26 07:59:07;;;;;;;9.57;4.97;;;21.20;89.80;;;;;;5035139;28;20315;-72
2021/07/26 08:01:33;;;;;;;7.88;4.97;;;21.30;89.50;;;;;;5034899;28;20034;-72
2021/07/26 08:03:59;;;;;;;6.72;4.60;;;21.30;89.20;;;;;;5034869;28;20029;-73
2021/07/26 08:06:24;;;;;;;8.48;4.97;;;21.30;88.70;;;;;;5051282;28;20049;-73
2021/07/26 08:08:50;;;;;;;9.82;5.22;;;21.30;88.10;;;;;;5036370;28;20431;-73
2021/07/26 08:11:16;;;;;;;6.50;4.32;;;21.30;87.50;;;;;;5035993;28;20029;-72
2021/07/26 08:13:42;;;;;;;8.25;4.35;;;21.30;87.50;;;;;;5051223;28;20632;-73
2021/07/26 08:16:07;;;;;;;6.18;4.00;;;21.30;87.40;;;;;;5034871;28;20022;-73
2021/07/26 08:18:33;;;;;;;7.95;4.45;;;21.40;87.30;;;;;;5051289;28;20427;-73
2021/07/26 08:20:59;;;;;;;7.28;4.20;;;21.40;87.10;;;;;;5034563;28;20038;-73
2021/07/26 08:23:25;;;;;;;7.10;4.43;;;21.40;87.00;;;;;;5050978;28;20033;-73
2021/07/26 08:25:51;;;;;;;8.75;4.78;;;21.40;87.00;;;;;;5035459;28;20432;-73
2021/07/26 08:28:16;;;;;;;7.07;4.53;;;21.40;86.50;;;;;;5050968;28;20018;-73
2021/07/26 08:30:43;;;;;;;6.78;4.40;;;21.50;86.10;;;;;;5035520;28;20026;-73
2021/07/26 08:33:09;;;;;;;7.15;3.67;;;21.50;85.90;;;;;;5034071;28;20029;-74
2021/07/26 08:35:36;;;;;;;6.45;3.63;;;21.60;86.10;;;;;;5035825;28;20036;-74
2021/07/26 08:38:03;;;;;;;6.50;4.10;;;21.70;86.00;;;;;;5034274;28;20035;-74
2021/07/26 08:40:30;;;;;;;6.07;3.47;;;21.90;85.70;;;;;;5034273;28;20026;-72
2021/07/26 08:43:00;;;;;;;5.90;4.03;;;22.00;85.70;;;;;;5050234;28;20079;-74
2021/07/26 08:45:25;;;;;;;6.88;4.13;;;22.00;84.10;;;;;;5035297;28;20076;-73
2021/07/26 08:47:54;;;;;;;7.80;4.50;;;22.00;83.50;;;;;;5034190;28;20029;-72
2021/07/26 08:50:20;;;;;;;5.63;3.97;;;22.00;83.30;;;;;;5035469;28;20025;-73
2021/07/26 08:52:49;;;;;;;6.13;3.92;;;22.10;83.30;;;;;;5034073;28;20108;-72
2021/07/26 08:55:16;;;;;;;7.85;3.90;;;22.10;83.10;;;;;;5035171;28;20033;-73
2021/07/26 08:57:49;;;;;;;5.03;3.47;;;22.20;83.00;;;;;;5035060;28;20029;-74
2021/07/26 09:00:17;;;;;;;8.10;3.47;;;22.30;83.10;;;;;;5050538;28;20029;-74
2021/07/26 09:02:43;;;;;;;6.75;4.03;;;22.40;82.80;;;;;;5050571;28;20389;-73
2021/07/26 09:05:10;;;;;;;5.13;3.20;;;22.50;82.50;;;;;;5050324;28;20045;-73
2021/07/26 09:07:40;;;;;;;5.43;3.47;;;22.70;82.20;;;;;;5035049;28;20032;-74
2021/07/26 09:10:23;;;;;;;5.63;3.88;;;22.80;82.00;;;;;;5034326;28;20029;-74
2021/07/26 09:12:54;;;;;;;6.88;3.45;;;22.90;82.00;;;;;;5034894;28;20033;-75
2021/07/26 09:15:25;;;;;;;5.50;2.90;;;23.10;81.90;;;;;;5035013;28;20032;-74
2021/07/26 09:17:52;;;;;;;5.32;3.75;;;23.30;81.60;;;;;;5034931;28;20033;-74
2021/07/26 09:20:19;;;;;;;5.78;2.80;;;23.40;80.70;;;;;;5034893;28;20033;-75
2021/07/26 09:22:46;;;;;;;4.55;3.05;;;23.50;80.80;;;;;;5050222;28;20477;-75
2021/07/26 09:25:29;;;;;;;6.43;3.60;;;23.60;79.90;;;;;;5035042;28;20033;-74
2021/07/26 09:28:05;;;;;;;6.75;3.95;;;23.60;78.80;;;;;;5034912;28;20028;-74
2021/07/26 09:30:44;;;;;;;5.63;3.38;;;23.70;78.40;;;;;;5035068;28;20116;-75
2021/07/26 09:33:23;;;;;;;7.32;3.25;;;23.80;78.00;;;;;;5034731;28;20022;-73
2021/07/26 09:36:04;;;;;;;5.53;2.85;;;23.90;77.10;;;;;;5034584;28;20366;-74
2021/07/26 09:38:30;;;;;;;8.45;2.70;;;23.90;76.40;;;;;;5034587;28;20056;-73
2021/07/26 09:40:56;;;;;;;4.97;3.35;;;24.00;76.30;;;;;;5034801;28;20033;-73
2021/07/26 09:43:24;;;;;;;5.07;2.25;;;24.10;75.70;;;;;;5033527;28;20053;-73
2021/07/26 09:45:53;;;;;;;3.20;2.05;;;24.30;75.00;;;;;;5034275;28;20025;-73
2021/07/26 09:48:21;;;;;;;3.83;2.55;;;24.30;74.20;;;;;;5049614;28;20032;-73
2021/07/26 09:50:49;;;;;;;6.22;2.15;;;24.20;73.30;;;;;;5033563;28;20028;-73
2021/07/26 09:53:14;;;;;;;3.88;2.10;;;24.10;72.90;;;;;;5049179;28;20028;-72
2021/07/26 09:55:42;;;;;;;3.97;2.13;;;24.00;73.00;;;;;;5033971;28;20021;-72
2021/07/26 09:58:09;;;;;;;3.65;1.95;;;23.80;73.00;;;;;;5049898;28;20025;-77
2021/07/26 10:00:36;;;;;;;7.50;1.70;;;23.70;73.00;;;;;;5034109;28;20083;-78
2021/07/26 10:03:03;;;;;;;6.22;1.52;;;23.70;73.50;;;;;;5049565;28;20057;-77
2021/07/26 10:05:31;;;;;;;3.60;1.98;;;23.80;73.80;;;;;;5049180;28;20045;-78
2021/07/26 10:08:00;;;;;;;3.40;1.80;;;23.90;73.50;;;;;;5033239;28;20025;-80
2021/07/26 10:10:27;;;;;;;4.50;2.08;;;24.10;73.10;;;;;;5049183;28;20025;-79
2021/07/26 10:12:53;;;;;;;3.35;1.70;;;24.20;72.40;;;;;;5048809;28;20163;-77
2021/07/26 10:15:19;;;;;;;4.43;1.52;;;24.40;72.40;;;;;;5050236;28;20421;-79
2021/07/26 10:17:47;;;;;;;2.15;1.35;;;24.50;72.60;;;;;;5035806;28;20036;-79
2021/07/26 10:20:18;;;;;;;2.53;1.10;;;24.60;71.00;;;;;;5035622;28;20500;-78
2021/07/26 10:22:49;;;;;;;2.67;1.23;;;24.70;70.30;;;;;;5053405;28;20032;-77
2021/07/26 10:25:21;;;;;;;2.38;1.20;;;24.90;69.00;;;;;;5052101;28;20100;-78
2021/07/26 10:27:54;;;;;;;1.75;0.90;;;24.90;66.70;;;;;;5053357;28;20025;-78
2021/07/26 10:30:34;;;;;;;2.17;0.98;;;24.90;67.30;;;;;;5052056;28;20025;-79
2021/07/26 10:33:01;;;;;;;2.80;1.30;;;25.10;67.10;;;;;;5053199;28;20049;-79
2021/07/26 10:35:36;;;;;;;3.72;1.70;;;25.20;66.80;;;;;;5036014;28;20021;-79
2021/07/26 10:38:02;;;;;;;3.30;1.67;;;25.20;66.30;;;;;;5053121;28;20033;-78
2021/07/26 10:40:29;;;;;;;3.67;1.83;;;25.30;66.50;;;;;;5052015;28;20017;-76
2021/07/26 10:43:03;;;;;;;3.80;1.55;;;25.40;66.60;;;;;;5051956;28;20037;-80
2021/07/26 10:45:32;;;;;;;4.70;1.92;;;25.40;65.40;;;;;;5052027;28;20509;-78
2021/07/26 10:48:22;;;;;;;3.47;1.35;;;25.40;64.70;;;;;;5053177;28;20044;-77
2021/07/26 10:50:49;;;;;;;4.05;1.40;;;25.20;64.50;;;;;;5051734;28;20059;-78
2021/07/26 10:53:36;;;;;;;2.22;1.33;;;25.10;65.10;;;;;;5053230;28;20021;-77
2021/07/26 10:56:09;;;;;;;3.10;1.60;;;25.10;65.30;;;;;;5051726;28;20029;-78
2021/07/26 10:58:38;;;;;;;2.83;1.23;;;25.10;65.60;;;;;;5035668;28;20026;-82
2021/07/26 11:01:22;;;;;;;3.40;1.13;;;25.20;65.30;;;;;;5051905;28;20036;-77
2021/07/26 11:03:57;;;;;;;2.50;1.23;;;25.30;64.50;;;;;;5053204;28;20021;-79
2021/07/26 11:06:38;;;;;;;2.08;0.60;;;25.30;64.60;;;;;;5055810;28;20048;-77
2021/07/26 11:09:24;;;;;;;1.92;0.80;;;25.30;63.20;;;;;;5057409;28;20070;-79
2021/07/26 11:11:54;;;;;;;2.40;0.77;;;25.40;63.10;;;;;;5057117;28;20021;-80
2021/07/26 11:14:20;;;;;;;2.33;0.82;;;25.50;63.20;;;;;;5055800;28;20021;-77
2021/07/26 11:16:49;;;;;;;2.25;0.80;;;25.60;63.50;;;;;;5056914;28;20025;-80
2021/07/26 11:19:38;;;;;;;2.45;0.98;;;25.70;63.40;;;;;;5056878;28;20029;-78
2021/07/26 11:22:14;;;;;;;2.70;1.00;;;25.80;63.40;;;;;;5055384;28;20047;-78
2021/07/26 11:24:44;;;;;;;3.45;1.10;;;25.90;63.40;;;;;;5055526;28;20461;-80
2021/07/26 11:27:12;;;;;;;2.00;0.98;;;25.90;62.80;;;;;;5056670;28;20733;-79
2021/07/26 11:29:38;;;;;;;3.13;1.30;;;26.10;63.00;;;;;;5056715;28;20024;-78
2021/07/26 11:32:04;;;;;;;2.53;1.30;;;26.30;62.50;;;;;;5056764;28;20033;-78
2021/07/26 11:34:36;;;;;;;1.90;0.80;;;26.30;61.40;;;;;;5056670;28;20017;-82
2021/07/26 11:37:09;;;;;;;1.67;1.00;;;26.30;61.50;;;;;;5056550;28;20540;-80
2021/07/26 11:39:55;;;;;;;2.50;0.82;;;26.30;61.20;;;;;;5055065;28;20328;-78
2021/07/26 11:42:25;;;;;;;2.53;1.00;;;26.00;60.70;;;;;;5055523;28;20506;-78
2021/07/26 11:44:52;;;;;;;3.03;1.05;;;25.90;60.80;;;;;;5055135;28;20032;-79
2021/07/26 11:47:57;;;;;;;2.95;1.30;;;25.70;61.10;;;;;;5056481;28;20087;-78
2021/07/26 11:50:36;;;;;;;3.22;1.27;;;25.60;61.40;;;;;;5052915;28;20039;-76
2021/07/26 11:53:02;;;;;;;2.15;1.25;;;25.50;61.80;;;;;;5056262;28;20021;-79
2021/07/26 11:55:29;;;;;;;3.72;1.20;;;25.40;62.10;;;;;;5056355;28;20037;-77
2021/07/26 11:58:02;;;;;;;2.53;1.00;;;25.40;62.30;;;;;;5055409;28;20029;-76
2021/07/26 12:00:31;;;;;;;3.53;1.20;;;25.60;62.70;;;;;;5056135;28;20037;-77
2021/07/26 12:02:57;;;;;;;2.40;0.90;;;25.90;62.60;;;;;;5035292;28;20113;-78
2021/07/26 12:05:31;;;;;;;3.95;1.10;;;26.10;62.00;;;;;;5017079;28;20049;-80
2021/07/26 12:07:57;;;;;;;;;;;26.20;61.60;;;;;;5036013;28;20030;-79
2021/07/26 12:10:34;;;;;;;5.18;1.10;;;26.30;60.90;;;;;;5036229;28;19979;-81
2021/07/26 12:13:10;;;;;;;3.33;1.02;;;26.40;60.80;;;;;;5036017;28;20378;-80
2021/07/26 12:15:37;;;;;;;2.90;0.82;;;26.60;60.10;;;;;;5035603;28;20465;-81
2021/07/26 12:18:16;;;;;;;4.60;1.00;;;26.70;59.40;;;;;;5033230;28;20033;-79
2021/07/26 12:20:57;;;;;;;3.47;1.25;;;26.60;59.30;;;;;;5034776;28;20413;-78
2021/07/26 12:23:24;;;;;;;2.60;1.42;;;26.50;59.10;;;;;;5034866;28;20025;-79
2021/07/26 12:25:54;;;;;;;2.90;1.30;;;26.50;59.30;;;;;;5035690;28;20029;-80
2021/07/26 12:28:22;;;;;;;3.72;1.40;;;26.50;59.50;;;;;;5034938;28;20022;-83
2021/07/26 12:30:51;;;;;;;3.10;1.08;;;26.60;59.70;;;;;;5035686;28;20056;-79
2021/07/26 12:33:32;;;;;;;2.83;0.90;;;26.80;59.90;;;;;;5034417;28;20481;-80
2021/07/26 12:36:15;;;;;;;2.38;1.08;;;27.20;59.40;;;;;;5035630;28;20057;-80
2021/07/26 12:38:41;;;;;;;2.72;1.00;;;27.20;58.40;;;;;;5035463;28;20033;-77
2021/07/26 12:41:10;;;;;;;3.25;1.00;;;27.10;58.60;;;;;;5034331;28;20038;-77
2021/07/26 12:43:41;;;;;;;4.70;0.95;;;27.10;58.70;;;;;;5034049;28;20105;-79
2021/07/26 12:46:07;;;;;;;2.22;0.93;;;27.20;58.30;;;;;;5035295;28;20029;-79
2021/07/26 12:48:37;;;;;;;3.95;1.38;;;27.00;57.60;;;;;;5033918;28;20025;-77